Terminal Aerodrome Forecast
Issued by NWS

Home | Current Version | Previous Version | Text Only | Print | Product List | Glossary On
Versions: 1 2 3 4 5 6 7 8 9 10 11 12 13 14
000
FTUS42 TJSJ 232000 AAA
TAFJBQ
TAF AMD
TJBQ 232029Z 2320/2418 03006KT P6SM VCSH BKN040
     FM232300 10005KT P6SM FEW030 SCT070
     FM240400 00000KT P6SM SKC
     FM241400 08011KT P6SM FEW025 SCT050=

USA.gov is the U.S. government's official web portal to all federal, state and local government web resources and services.